Time;durP1;ratioP1;P1;durP2;ratioP2;P2;SDS_P1;SDS_P2;PMS_P1;PMS_P2;Temp;Humidity;BMP_temperature;BMP_pressure;BME280_temperature;BME280_humidity;BME280_pressure;Samples;Min_cycle;Max_cycle;Signal;HPM_P1;HPM_P2
2023/11/11 00:00:24;;;;;;;;;9.00;7.00;;;;;;;;5048446;28;10586;-91
2023/11/11 00:02:52;;;;;;;;;6.50;6.50;;;;;;;;5051746;28;10629;-86
2023/11/11 00:05:25;;;;;;;;;5.50;5.00;;;;;;;;5040191;28;10540;-86
2023/11/11 00:07:52;;;;;;;;;8.00;6.00;;;;;;;;5050297;28;10702;-84
2023/11/11 00:10:22;;;;;;;;;7.00;7.00;;;;;;;;5023842;28;10882;-89
2023/11/11 00:12:53;;;;;;;;;7.75;7.75;;;;;;;;5050745;28;10743;-87
2023/11/11 00:15:20;;;;;;;;;7.00;6.50;;;;;;;;5052005;28;10752;-85
2023/11/11 00:17:47;;;;;;;;;7.25;6.50;;;;;;;;5051964;28;10772;-86
2023/11/11 00:20:16;;;;;;;;;6.25;3.50;;;;;;;;5051809;28;10820;-85
2023/11/11 00:22:45;;;;;;;;;5.00;5.00;;;;;;;;5051002;28;10780;-87
2023/11/11 00:25:16;;;;;;;;;9.25;7.50;;;;;;;;5042092;28;10649;-87
2023/11/11 00:27:44;;;;;;;;;2.00;2.00;;;;;;;;5052432;28;10759;-85
2023/11/11 00:30:13;;;;;;;;;7.00;7.00;;;;;;;;5071004;28;10600;-87
2023/11/11 00:32:44;;;;;;;;;8.00;8.00;;;;;;;;5066499;28;10799;-84
2023/11/11 00:35:11;;;;;;;;;8.00;7.00;;;;;;;;5051811;28;10952;-84
2023/11/11 00:37:39;;;;;;;;;8.00;6.50;;;;;;;;5045294;28;10711;-83
2023/11/11 00:40:10;;;;;;;;;6.50;6.50;;;;;;;;5043528;28;10761;-86
2023/11/11 00:42:38;;;;;;;;;5.00;5.00;;;;;;;;5032335;28;10918;-84
2023/11/11 00:45:06;;;;;;;;;5.50;5.50;;;;;;;;5035390;28;10535;-85
2023/11/11 00:47:35;;;;;;;;;7.75;3.00;;;;;;;;5051587;28;10653;-87
2023/11/11 00:50:04;;;;;;;;;7.00;7.00;;;;;;;;5039599;28;10823;-86
2023/11/11 00:52:33;;;;;;;;;10.00;8.25;;;;;;;;5034031;28;10683;-91
2023/11/11 00:55:01;;;;;;;;;9.25;7.50;;;;;;;;5049631;28;10694;-90
2023/11/11 00:57:32;;;;;;;;;7.50;7.50;;;;;;;;5050794;28;10852;-88
2023/11/11 00:59:59;;;;;;;;;8.25;8.25;;;;;;;;5051933;28;10798;-85
2023/11/11 01:02:27;;;;;;;;;3.00;3.00;;;;;;;;5053710;28;10924;-91
2023/11/11 01:04:54;;;;;;;;;9.25;8.50;;;;;;;;5041867;28;10989;-86
2023/11/11 01:07:22;;;;;;;;;9.25;9.25;;;;;;;;5051281;28;10959;-86
2023/11/11 01:09:53;;;;;;;;;8.75;8.75;;;;;;;;5052619;28;10995;-88
2023/11/11 01:12:22;;;;;;;;;9.00;9.00;;;;;;;;5054132;28;11023;-88
2023/11/11 01:14:51;;;;;;;;;8.50;8.00;;;;;;;;5056118;28;11249;-85
2023/11/11 01:17:19;;;;;;;;;8.25;8.25;;;;;;;;5053286;28;11001;-86
2023/11/11 01:19:47;;;;;;;;;10.00;10.00;;;;;;;;5055265;28;11093;-87
2023/11/11 01:22:16;;;;;;;;;8.50;7.25;;;;;;;;5051833;28;11104;-86
2023/11/11 01:24:43;;;;;;;;;4.25;4.25;;;;;;;;5056379;28;11141;-87
2023/11/11 01:27:11;;;;;;;;;8.00;8.00;;;;;;;;5053443;28;11065;-90
2023/11/11 01:29:38;;;;;;;;;8.25;6.75;;;;;;;;5051760;28;10923;-90
2023/11/11 01:32:08;;;;;;;;;10.00;9.00;;;;;;;;5050595;28;10909;-90
2023/11/11 01:34:35;;;;;;;;;7.00;7.00;;;;;;;;5051506;28;11015;-89
2023/11/11 01:37:05;;;;;;;;;9.50;8.00;;;;;;;;5053648;28;10977;-91
2023/11/11 01:39:35;;;;;;;;;10.00;10.00;;;;;;;;5052571;28;10989;-88
2023/11/11 01:42:02;;;;;;;;;9.75;9.75;;;;;;;;5045090;28;11124;-90
2023/11/11 01:44:31;;;;;;;;;7.50;7.50;;;;;;;;5049335;28;11023;-90
2023/11/11 01:46:58;;;;;;;;;8.75;8.50;;;;;;;;5047415;28;11085;-87
2023/11/11 01:49:30;;;;;;;;;9.00;9.00;;;;;;;;5049837;28;10996;-84
2023/11/11 01:51:57;;;;;;;;;8.25;8.25;;;;;;;;5050003;28;11207;-90
2023/11/11 01:54:24;;;;;;;;;8.50;8.50;;;;;;;;5049350;28;11895;-92
2023/11/11 01:56:52;;;;;;;;;10.25;9.00;;;;;;;;5048713;28;11193;-84
2023/11/11 01:59:20;;;;;;;;;8.25;8.25;;;;;;;;5049587;28;11276;-87
2023/11/11 02:01:49;;;;;;;;;14.50;8.50;;;;;;;;5039078;28;11288;-85
2023/11/11 02:04:17;;;;;;;;;7.00;4.50;;;;;;;;5049737;28;11415;-86
2023/11/11 02:06:49;;;;;;;;;8.25;6.00;;;;;;;;5048582;28;11440;-85
2023/11/11 02:09:17;;;;;;;;;12.25;10.00;;;;;;;;5049422;28;11394;-89
2023/11/11 02:11:47;;;;;;;;;7.75;7.75;;;;;;;;5047376;28;11533;-87
2023/11/11 02:14:15;;;;;;;;;10.75;10.75;;;;;;;;5046225;28;11525;-85
2023/11/11 02:16:43;;;;;;;;;11.50;8.00;;;;;;;;5049259;28;11410;-87
2023/11/11 02:19:10;;;;;;;;;11.50;10.75;;;;;;;;5046342;28;11465;-86
2023/11/11 02:21:37;;;;;;;;;8.25;8.25;;;;;;;;5047651;28;11397;-86
2023/11/11 02:24:07;;;;;;;;;6.00;6.00;;;;;;;;5050019;28;11396;-88
2023/11/11 02:26:34;;;;;;;;;6.75;6.75;;;;;;;;5051657;28;11398;-84
2023/11/11 02:29:02;;;;;;;;;9.00;9.00;;;;;;;;5050692;28;11546;-84
2023/11/11 02:31:29;;;;;;;;;5.50;5.25;;;;;;;;5056851;28;11439;-85
2023/11/11 02:33:58;;;;;;;;;6.00;6.00;;;;;;;;5050373;28;11421;-83
2023/11/11 02:36:28;;;;;;;;;10.50;7.25;;;;;;;;5048700;28;11381;-83
2023/11/11 02:38:55;;;;;;;;;8.00;8.00;;;;;;;;5049127;28;11471;-81
2023/11/11 02:41:25;;;;;;;;;11.50;10.00;;;;;;;;5038652;28;11393;-87
2023/11/11 02:43:54;;;;;;;;;12.00;8.50;;;;;;;;5047569;28;11456;-92
2023/11/11 02:46:22;;;;;;;;;11.50;11.00;;;;;;;;5048979;28;11442;-87
2023/11/11 02:48:49;;;;;;;;;11.50;8.00;;;;;;;;5049410;28;11452;-85
2023/11/11 02:51:16;;;;;;;;;9.00;9.00;;;;;;;;5050032;28;11392;-89
2023/11/11 02:53:43;;;;;;;;;11.50;9.75;;;;;;;;5048541;28;11430;-85
2023/11/11 02:56:11;;;;;;;;;11.50;9.50;;;;;;;;5049799;28;11614;-86
2023/11/11 02:58:40;;;;;;;;;7.50;7.50;;;;;;;;5050416;28;11443;-87
2023/11/11 03:01:08;;;;;;;;;8.50;8.50;;;;;;;;5051656;28;11533;-85
2023/11/11 03:03:35;;;;;;;;;7.25;7.25;;;;;;;;5054632;28;11469;-86
2023/11/11 03:06:05;;;;;;;;;13.75;12.00;;;;;;;;5056825;28;11459;-88
2023/11/11 03:08:36;;;;;;;;;11.75;11.75;;;;;;;;5057358;28;11486;-87
2023/11/11 03:11:04;;;;;;;;;15.75;11.50;;;;;;;;5057006;28;11584;-88
2023/11/11 03:13:32;;;;;;;;;15.25;13.00;;;;;;;;5058107;28;11440;-86
2023/11/11 03:16:01;;;;;;;;;10.75;9.00;;;;;;;;5059757;28;11482;-88
2023/11/11 03:18:31;;;;;;;;;7.00;7.00;;;;;;;;5061372;28;11468;-89
2023/11/11 03:21:01;;;;;;;;;11.25;10.00;;;;;;;;5049771;28;11448;-86
2023/11/11 03:23:28;;;;;;;;;11.50;9.75;;;;;;;;5050550;28;11481;-93
2023/11/11 03:25:56;;;;;;;;;9.00;9.00;;;;;;;;5051620;28;11476;-91
2023/11/11 03:28:23;;;;;;;;;11.50;7.50;;;;;;;;5045070;28;11441;-89
2023/11/11 03:30:50;;;;;;;;;9.25;6.00;;;;;;;;5048431;28;11421;-89
2023/11/11 03:33:19;;;;;;;;;3.50;3.00;;;;;;;;5047505;28;11552;-92
2023/11/11 03:35:50;;;;;;;;;9.00;9.00;;;;;;;;5051002;28;11435;-86
2023/11/11 03:38:18;;;;;;;;;7.75;7.75;;;;;;;;5047784;28;11391;-92
2023/11/11 03:40:45;;;;;;;;;9.50;8.50;;;;;;;;5052563;28;11456;-90
2023/11/11 03:43:12;;;;;;;;;11.00;11.00;;;;;;;;5051727;28;11573;-90
2023/11/11 03:45:40;;;;;;;;;4.50;4.50;;;;;;;;5052474;28;11445;-90
2023/11/11 03:48:07;;;;;;;;;8.00;8.00;;;;;;;;5052461;28;11572;-90
2023/11/11 03:50:36;;;;;;;;;8.00;8.00;;;;;;;;5052221;28;11556;-85
2023/11/11 03:53:03;;;;;;;;;12.75;9.25;;;;;;;;5051714;28;12295;-85
2023/11/11 03:55:31;;;;;;;;;7.25;7.25;;;;;;;;5052257;28;11615;-85
2023/11/11 03:57:59;;;;;;;;;7.75;6.00;;;;;;;;5051447;28;11410;-88
2023/11/11 04:00:26;;;;;;;;;11.25;9.00;;;;;;;;5041639;28;11441;-87
2023/11/11 04:02:54;;;;;;;;;8.00;8.00;;;;;;;;5047942;28;11437;-86
2023/11/11 04:05:22;;;;;;;;;5.75;5.50;;;;;;;;5051873;28;11441;-86
2023/11/11 04:07:50;;;;;;;;;10.50;9.75;;;;;;;;5051828;28;11449;-86
2023/11/11 04:10:19;;;;;;;;;6.50;6.50;;;;;;;;5051588;28;11488;-88
2023/11/11 04:12:46;;;;;;;;;10.50;9.00;;;;;;;;5051646;28;11455;-85
2023/11/11 04:15:14;;;;;;;;;10.50;10.00;;;;;;;;5051773;28;11471;-88
2023/11/11 04:17:42;;;;;;;;;8.75;8.75;;;;;;;;5043813;28;11594;-90
2023/11/11 04:20:11;;;;;;;;;10.50;10.50;;;;;;;;5041121;28;11436;-88
2023/11/11 04:22:38;;;;;;;;;9.50;9.50;;;;;;;;5050808;28;11459;-88
2023/11/11 04:25:11;;;;;;;;;8.75;7.50;;;;;;;;5044951;28;11498;-83
2023/11/11 04:27:38;;;;;;;;;12.50;8.00;;;;;;;;5046111;28;11555;-84
2023/11/11 04:30:07;;;;;;;;;7.75;6.00;;;;;;;;5050273;28;11459;-86
2023/11/11 04:32:36;;;;;;;;;12.00;9.00;;;;;;;;5051798;28;11386;-83
2023/11/11 04:35:04;;;;;;;;;7.25;7.25;;;;;;;;5051474;28;11440;-89
2023/11/11 04:37:32;;;;;;;;;8.75;8.75;;;;;;;;5044924;28;11416;-85
2023/11/11 04:39:59;;;;;;;;;6.25;6.25;;;;;;;;5051090;28;11501;-88
2023/11/11 04:42:28;;;;;;;;;8.25;7.00;;;;;;;;5051013;28;11391;-85
2023/11/11 04:44:56;;;;;;;;;9.00;5.75;;;;;;;;5052100;28;11430;-90
2023/11/11 04:47:27;;;;;;;;;11.50;9.75;;;;;;;;5042326;28;11513;-90
2023/11/11 04:49:54;;;;;;;;;9.75;9.75;;;;;;;;5049699;28;11489;-87
2023/11/11 04:52:22;;;;;;;;;7.50;6.25;;;;;;;;5054390;28;11567;-86
2023/11/11 04:54:49;;;;;;;;;6.75;6.75;;;;;;;;5054853;28;11426;-85
2023/11/11 04:57:18;;;;;;;;;6.25;6.25;;;;;;;;5056812;28;11589;-87
2023/11/11 04:59:47;;;;;;;;;5.00;5.00;;;;;;;;5057280;28;11388;-90
2023/11/11 05:02:16;;;;;;;;;6.00;6.00;;;;;;;;5056559;28;11445;-85
2023/11/11 05:04:44;;;;;;;;;6.00;6.00;;;;;;;;5056543;28;11394;-89
2023/11/11 05:07:11;;;;;;;;;7.75;7.75;;;;;;;;5037730;28;11443;-89
2023/11/11 05:09:38;;;;;;;;;6.50;6.50;;;;;;;;5050252;28;11463;-87
2023/11/11 05:12:08;;;;;;;;;11.25;8.50;;;;;;;;5034736;28;11456;-90
2023/11/11 05:14:36;;;;;;;;;10.25;8.25;;;;;;;;5053651;28;11464;-90
2023/11/11 05:17:07;;;;;;;;;9.00;6.00;;;;;;;;5054785;28;12275;-92
2023/11/11 05:19:36;;;;;;;;;7.00;7.00;;;;;;;;5050684;28;11506;-91
2023/11/11 05:22:05;;;;;;;;;7.00;6.50;;;;;;;;5049315;28;11439;-88
2023/11/11 05:24:32;;;;;;;;;6.75;6.75;;;;;;;;5048532;28;11456;-91
2023/11/11 05:27:00;;;;;;;;;9.75;6.00;;;;;;;;5049451;28;11485;-93
2023/11/11 05:29:27;;;;;;;;;6.00;6.00;;;;;;;;5041995;28;12173;-90
2023/11/11 05:31:54;;;;;;;;;9.00;7.25;;;;;;;;5046027;28;11466;-88
2023/11/11 05:34:23;;;;;;;;;7.00;7.00;;;;;;;;5050886;28;11869;-88
2023/11/11 05:36:51;;;;;;;;;3.50;3.50;;;;;;;;5048279;28;11427;-93
2023/11/11 05:39:19;;;;;;;;;6.75;6.75;;;;;;;;5049395;28;11434;-92
2023/11/11 05:41:46;;;;;;;;;8.00;6.75;;;;;;;;5032481;28;11432;-84
2023/11/11 05:44:13;;;;;;;;;7.75;5.00;;;;;;;;5050133;28;11449;-87
2023/11/11 05:46:42;;;;;;;;;9.50;7.50;;;;;;;;5049192;28;11599;-85
2023/11/11 05:49:12;;;;;;;;;6.25;6.25;;;;;;;;5050573;28;11465;-90
2023/11/11 05:51:41;;;;;;;;;8.00;6.75;;;;;;;;5051917;28;12315;-88
2023/11/11 05:54:10;;;;;;;;;7.00;7.00;;;;;;;;5066780;28;11445;-88
2023/11/11 05:56:38;;;;;;;;;9.50;6.00;;;;;;;;5070605;28;12281;-87
2023/11/11 05:59:07;;;;;;;;;8.25;6.25;;;;;;;;5049890;28;11534;-87
2023/11/11 06:01:35;;;;;;;;;7.75;5.00;;;;;;;;5046165;28;12173;-86
2023/11/11 06:04:02;;;;;;;;;6.00;6.00;;;;;;;;5049726;28;11447;-86
2023/11/11 06:06:33;;;;;;;;;6.50;6.00;;;;;;;;5049502;28;11443;-89
2023/11/11 06:09:01;;;;;;;;;5.00;5.00;;;;;;;;5047846;28;11480;-89
2023/11/11 06:11:29;;;;;;;;;7.75;7.75;;;;;;;;5043347;28;11486;-87
2023/11/11 06:13:56;;;;;;;;;6.75;4.50;;;;;;;;5044987;28;11396;-90
2023/11/11 06:16:24;;;;;;;;;8.75;7.25;;;;;;;;5050188;28;11435;-89
2023/11/11 06:18:52;;;;;;;;;7.25;6.00;;;;;;;;5049159;28;11404;-87
2023/11/11 06:21:19;;;;;;;;;4.25;4.25;;;;;;;;5046578;28;11459;-87
2023/11/11 06:23:47;;;;;;;;;7.25;5.75;;;;;;;;5049747;28;11433;-89
2023/11/11 06:26:15;;;;;;;;;6.75;6.75;;;;;;;;5050851;28;11532;-85
2023/11/11 06:28:43;;;;;;;;;4.50;4.50;;;;;;;;5051809;28;11347;-89
2023/11/11 06:31:10;;;;;;;;;6.50;5.75;;;;;;;;5032856;28;11353;-86
2023/11/11 06:33:38;;;;;;;;;5.00;5.00;;;;;;;;5048827;28;11400;-84
2023/11/11 06:36:10;;;;;;;;;6.25;5.50;;;;;;;;5050026;28;11402;-86
2023/11/11 06:38:37;;;;;;;;;6.00;6.00;;;;;;;;5050220;28;11386;-84
2023/11/11 06:41:05;;;;;;;;;8.00;6.75;;;;;;;;5052784;28;11423;-84
2023/11/11 06:43:34;;;;;;;;;6.50;5.00;;;;;;;;5036328;28;11398;-84
2023/11/11 06:46:03;;;;;;;;;32.75;19.00;;;;;;;;5055970;28;11446;-86
2023/11/11 06:48:33;;;;;;;;;7.00;4.50;;;;;;;;5050051;28;11498;-80
2023/11/11 06:51:00;;;;;;;;;6.25;6.25;;;;;;;;5050483;28;11998;-84
2023/11/11 06:53:30;;;;;;;;;15.00;13.00;;;;;;;;5045310;28;11440;-81
2023/11/11 06:55:58;;;;;;;;;6.75;6.75;;;;;;;;5052258;28;11513;-80
2023/11/11 06:58:38;;;;;;;;;7.50;7.00;;;;;;;;5049261;28;11435;-84
2023/11/11 07:01:06;;;;;;;;;9.50;7.75;;;;;;;;5048941;28;11406;-77
2023/11/11 07:03:35;;;;;;;;;7.25;7.25;;;;;;;;5049977;28;11483;-81
2023/11/11 07:06:03;;;;;;;;;5.50;5.50;;;;;;;;5050123;28;11432;-84
2023/11/11 07:08:41;;;;;;;;;9.00;9.00;;;;;;;;5048320;28;11494;-79
2023/11/11 07:11:11;;;;;;;;;8.75;8.75;;;;;;;;5051299;28;11442;-80
2023/11/11 07:13:44;;;;;;;;;8.00;8.00;;;;;;;;5051959;28;11597;-84
2023/11/11 07:16:12;;;;;;;;;10.00;7.25;;;;;;;;5050578;28;11513;-80
2023/11/11 07:18:40;;;;;;;;;7.00;7.00;;;;;;;;5053487;28;11455;-86
2023/11/11 07:21:09;;;;;;;;;10.75;8.00;;;;;;;;5050608;28;11543;-83
2023/11/11 07:23:37;;;;;;;;;6.00;6.00;;;;;;;;5051319;28;11411;-78
2023/11/11 07:26:07;;;;;;;;;9.50;8.25;;;;;;;;5050892;28;11398;-77
2023/11/11 07:28:36;;;;;;;;;12.75;9.00;;;;;;;;5051625;28;11568;-78
2023/11/11 07:31:07;;;;;;;;;9.75;9.25;;;;;;;;5051715;28;12229;-83
2023/11/11 07:33:37;;;;;;;;;7.25;6.50;;;;;;;;5051301;28;11458;-79
2023/11/11 07:36:08;;;;;;;;;5.75;3.00;;;;;;;;5052490;28;12204;-81
2023/11/11 07:38:35;;;;;;;;;7.75;7.75;;;;;;;;5052277;28;11389;-78
2023/11/11 07:41:08;;;;;;;;;7.75;6.50;;;;;;;;5053275;28;11393;-90
2023/11/11 07:43:36;;;;;;;;;12.00;9.50;;;;;;;;5055183;28;11395;-89
2023/11/11 07:46:09;;;;;;;;;8.75;6.50;;;;;;;;5056429;28;11496;-90
2023/11/11 07:48:38;;;;;;;;;7.50;7.50;;;;;;;;5054429;28;11382;-79
2023/11/11 07:51:05;;;;;;;;;6.75;6.75;;;;;;;;5053686;28;11407;-79
2023/11/11 07:53:34;;;;;;;;;6.00;6.00;;;;;;;;5046092;28;12200;-79
2023/11/11 07:56:02;;;;;;;;;7.25;7.25;;;;;;;;5047925;28;11401;-78
2023/11/11 07:58:30;;;;;;;;;8.25;4.00;;;;;;;;5053138;28;11380;-81
2023/11/11 08:00:57;;;;;;;;;4.25;4.25;;;;;;;;5049683;28;11349;-84
2023/11/11 08:03:32;;;;;;;;;3.00;3.00;;;;;;;;5051330;28;11426;-76
2023/11/11 08:06:02;;;;;;;;;5.25;5.25;;;;;;;;5047943;28;11147;-77
2023/11/11 08:08:36;;;;;;;;;6.00;3.25;;;;;;;;5041830;28;11388;-76
2023/11/11 08:11:05;;;;;;;;;3.25;3.25;;;;;;;;5037369;28;11476;-77
2023/11/11 08:13:32;;;;;;;;;7.75;5.50;;;;;;;;5050874;28;11133;-81
2023/11/11 08:16:00;;;;;;;;;3.75;3.75;;;;;;;;5050395;28;11244;-81
2023/11/11 08:18:32;;;;;;;;;4.00;4.00;;;;;;;;5050924;28;11805;-82
2023/11/11 08:20:59;;;;;;;;;4.00;4.00;;;;;;;;5050369;28;11119;-79
2023/11/11 08:23:34;;;;;;;;;3.25;2.75;;;;;;;;5050519;28;11113;-76
2023/11/11 08:26:02;;;;;;;;;4.00;4.00;;;;;;;;5052609;28;11156;-76
2023/11/11 08:28:31;;;;;;;;;7.00;6.00;;;;;;;;5052399;28;11310;-77
2023/11/11 08:30:58;;;;;;;;;8.50;6.25;;;;;;;;5039464;28;11071;-76
2023/11/11 08:33:26;;;;;;;;;4.00;4.00;;;;;;;;5054358;28;11533;-78
2023/11/11 08:35:55;;;;;;;;;3.00;3.00;;;;;;;;5046036;28;11043;-84
2023/11/11 08:38:22;;;;;;;;;5.50;3.00;;;;;;;;5057576;28;11268;-82
2023/11/11 08:40:51;;;;;;;;;7.00;4.00;;;;;;;;5065286;28;11389;-86
2023/11/11 08:43:21;;;;;;;;;4.00;4.00;;;;;;;;5060865;28;11049;-83
2023/11/11 08:45:48;;;;;;;;;5.00;5.00;;;;;;;;5051747;28;11047;-86
2023/11/11 08:48:16;;;;;;;;;7.25;6.00;;;;;;;;5051770;28;11113;-81
2023/11/11 08:50:43;;;;;;;;;3.25;3.25;;;;;;;;5052807;28;11106;-80
2023/11/11 08:53:12;;;;;;;;;6.75;4.00;;;;;;;;5049947;28;10925;-80
2023/11/11 08:55:39;;;;;;;;;4.75;4.75;;;;;;;;5049427;28;10979;-77
2023/11/11 08:58:06;;;;;;;;;3.25;3.25;;;;;;;;5049433;28;10838;-79
2023/11/11 09:00:35;;;;;;;;;4.00;3.00;;;;;;;;5049076;28;10688;-83
2023/11/11 09:03:04;;;;;;;;;1.00;1.00;;;;;;;;5049193;28;10700;-82
2023/11/11 09:05:34;;;;;;;;;3.50;2.00;;;;;;;;5049721;28;10622;-85
2023/11/11 09:08:06;;;;;;;;;3.50;2.75;;;;;;;;5049555;28;10537;-82
2023/11/11 09:10:34;;;;;;;;;4.50;3.00;;;;;;;;5049415;28;11409;-82
2023/11/11 09:13:03;;;;;;;;;2.75;2.75;;;;;;;;5049583;28;10438;-80
2023/11/11 09:15:32;;;;;;;;;4.00;2.25;;;;;;;;5049344;28;10436;-80
2023/11/11 09:18:05;;;;;;;;;4.00;3.00;;;;;;;;5049098;28;10379;-81
2023/11/11 09:20:32;;;;;;;;;3.50;3.50;;;;;;;;5049689;28;10612;-82
2023/11/11 09:22:59;;;;;;;;;5.75;1.75;;;;;;;;5049641;28;11123;-77
2023/11/11 09:25:27;;;;;;;;;2.75;2.75;;;;;;;;5048505;28;10517;-80
2023/11/11 09:27:57;;;;;;;;;2.00;2.00;;;;;;;;5047827;28;10199;-79
2023/11/11 09:30:24;;;;;;;;;1.25;1.00;;;;;;;;5048462;28;10150;-79
2023/11/11 09:32:53;;;;;;;;;2.25;2.25;;;;;;;;5048419;28;10293;-76
2023/11/11 09:35:24;;;;;;;;;2.50;2.50;;;;;;;;5048667;28;10160;-80
2023/11/11 09:37:52;;;;;;;;;3.75;2.50;;;;;;;;5038994;28;10172;-84
2023/11/11 09:40:18;;;;;;;;;1.00;1.00;;;;;;;;5048963;28;10192;-86
2023/11/11 09:42:46;;;;;;;;;3.00;3.00;;;;;;;;5048422;28;10103;-81
2023/11/11 09:45:14;;;;;;;;;2.00;2.00;;;;;;;;5047709;28;10823;-82
2023/11/11 09:47:44;;;;;;;;;2.00;2.00;;;;;;;;5048547;28;10094;-82
2023/11/11 09:50:14;;;;;;;;;2.00;2.00;;;;;;;;5036384;28;10071;-82
2023/11/11 09:52:42;;;;;;;;;7.00;4.00;;;;;;;;5048225;28;10026;-77
2023/11/11 09:55:10;;;;;;;;;3.25;2.00;;;;;;;;5048658;28;10224;-82
2023/11/11 09:57:37;;;;;;;;;4.75;4.00;;;;;;;;5036529;28;10151;-76
2023/11/11 10:00:07;;;;;;;;;4.25;3.00;;;;;;;;5048638;28;10172;-78
2023/11/11 10:02:38;;;;;;;;;4.00;4.00;;;;;;;;5048094;28;10105;-80
2023/11/11 10:05:09;;;;;;;;;3.75;2.00;;;;;;;;5049562;28;10098;-81
2023/11/11 10:07:36;;;;;;;;;3.50;3.50;;;;;;;;5036813;28;10345;-84
2023/11/11 10:10:08;;;;;;;;;4.50;2.00;;;;;;;;5047658;28;10163;-80
2023/11/11 10:12:37;;;;;;;;;2.50;2.50;;;;;;;;5049652;28;10033;-89
2023/11/11 10:15:08;;;;;;;;;4.25;3.00;;;;;;;;5051810;28;10037;-76
2023/11/11 10:17:40;;;;;;;;;2.00;2.00;;;;;;;;5052461;28;9912;-76
2023/11/11 10:20:13;;;;;;;;;1.00;1.00;;;;;;;;5052126;28;10635;-83
2023/11/11 10:22:46;;;;;;;;;2.00;2.00;;;;;;;;5051241;28;9687;-78
2023/11/11 10:25:14;;;;;;;;;4.00;2.75;;;;;;;;5051885;28;9756;-74
2023/11/11 10:27:47;;;;;;;;;2.00;2.00;;;;;;;;5040590;28;9880;-77
2023/11/11 10:30:19;;;;;;;;;4.00;3.00;;;;;;;;5051508;28;10510;-77
2023/11/11 10:32:49;;;;;;;;;0.00;0.00;;;;;;;;5048943;28;9535;-82
2023/11/11 10:35:17;;;;;;;;;3.00;1.25;;;;;;;;5047127;28;9433;-83
2023/11/11 10:37:46;;;;;;;;;2.00;2.00;;;;;;;;5051051;28;9487;-76
2023/11/11 10:40:16;;;;;;;;;3.00;3.00;;;;;;;;5051437;28;9463;-84
2023/11/11 10:42:45;;;;;;;;;1.00;1.00;;;;;;;;5049384;28;10319;-84
2023/11/11 10:45:15;;;;;;;;;1.00;1.00;;;;;;;;5047767;28;9315;-84
2023/11/11 10:47:43;;;;;;;;;2.00;2.00;;;;;;;;5047208;28;9285;-83
2023/11/11 10:50:12;;;;;;;;;1.00;1.00;;;;;;;;5046631;28;9466;-79
2023/11/11 10:52:41;;;;;;;;;2.67;1.00;;;;;;;;5047768;28;9488;-80
2023/11/11 10:55:10;;;;;;;;;2.00;2.00;;;;;;;;5043757;28;9289;-79
2023/11/11 10:57:40;;;;;;;;;2.00;2.00;;;;;;;;5041355;28;9238;-81
2023/11/11 11:00:16;;;;;;;;;1.00;1.00;;;;;;;;5044584;28;9163;-76
2023/11/11 11:02:46;;;;;;;;;1.00;1.00;;;;;;;;5043160;28;9002;-81
2023/11/11 11:05:23;;;;;;;;;1.33;1.33;;;;;;;;5048996;28;9962;-76
2023/11/11 11:07:56;;;;;;;;;3.00;1.00;;;;;;;;5048209;28;9263;-79
2023/11/11 11:10:31;;;;;;;;;2.33;1.00;;;;;;;;5048675;28;9221;-79
2023/11/11 11:13:02;;;;;;;;;1.67;0.00;;;;;;;;5058929;28;9004;-74
2023/11/11 11:15:30;;;;;;;;;1.75;1.75;;;;;;;;5059371;28;9017;-81
2023/11/11 11:17:57;;;;;;;;;1.00;1.00;;;;;;;;5043964;28;8975;-79
2023/11/11 11:20:27;;;;;;;;;1.50;1.00;;;;;;;;5043997;28;8864;-81
2023/11/11 11:23:00;;;;;;;;;1.00;1.00;;;;;;;;5047583;28;8933;-77
2023/11/11 11:25:50;;;;;;;;;0.00;0.00;;;;;;;;5049055;28;8825;-78
2023/11/11 11:28:21;;;;;;;;;2.25;1.00;;;;;;;;5044583;28;8860;-76
2023/11/11 11:30:50;;;;;;;;;0.00;0.00;;;;;;;;5047135;28;8792;-78
2023/11/11 11:33:18;;;;;;;;;0.00;0.00;;;;;;;;5046818;28;8891;-76
2023/11/11 11:35:48;;;;;;;;;0.50;0.50;;;;;;;;5046999;28;8922;-79
2023/11/11 11:38:24;;;;;;;;;0.50;0.50;;;;;;;;5046673;28;8867;-77
2023/11/11 11:40:52;;;;;;;;;0.00;0.00;;;;;;;;5046943;28;9637;-77
2023/11/11 11:43:29;;;;;;;;;2.00;1.00;;;;;;;;5046263;28;8892;-78
2023/11/11 11:45:58;;;;;;;;;1.00;1.00;;;;;;;;5047260;28;8842;-75
2023/11/11 11:48:29;;;;;;;;;0.25;0.25;;;;;;;;5047414;28;9242;-77
2023/11/11 11:51:12;;;;;;;;;0.50;0.50;;;;;;;;5046974;28;8888;-76
2023/11/11 11:53:41;;;;;;;;;0.00;0.00;;;;;;;;5037425;28;9247;-77
2023/11/11 11:56:10;;;;;;;;;0.00;0.00;;;;;;;;5047485;28;8848;-78
2023/11/11 11:58:48;;;;;;;;;0.00;0.00;;;;;;;;5051430;28;8842;-76
2023/11/11 12:01:26;;;;;;;;;0.00;0.00;;;;;;;;5049230;28;8785;-75
2023/11/11 12:03:54;;;;;;;;;0.00;0.00;;;;;;;;5052671;28;8850;-77
2023/11/11 12:06:23;;;;;;;;;0.75;0.75;;;;;;;;5052322;28;8848;-78
2023/11/11 12:08:52;;;;;;;;;0.00;0.00;;;;;;;;5054037;28;8856;-76
2023/11/11 12:11:26;;;;;;;;;0.50;0.50;;;;;;;;5052570;28;8856;-77
2023/11/11 12:13:53;;;;;;;;;0.50;0.50;;;;;;;;5053024;28;8891;-76
2023/11/11 12:16:21;;;;;;;;;1.50;0.00;;;;;;;;5053891;28;8878;-76
2023/11/11 12:18:48;;;;;;;;;3.00;0.00;;;;;;;;5051558;28;9576;-75
2023/11/11 12:21:19;;;;;;;;;1.00;0.00;;;;;;;;5049370;28;8871;-76
2023/11/11 12:23:49;;;;;;;;;0.50;0.50;;;;;;;;5050768;28;8856;-77
2023/11/11 12:26:17;;;;;;;;;1.00;1.00;;;;;;;;5049938;28;8894;-76
2023/11/11 12:28:45;;;;;;;;;1.75;1.75;;;;;;;;5051356;28;8836;-76
2023/11/11 12:31:14;;;;;;;;;0.50;0.50;;;;;;;;5049335;28;9586;-77
2023/11/11 12:33:52;;;;;;;;;1.00;1.00;;;;;;;;5049730;28;8840;-75
2023/11/11 12:36:20;;;;;;;;;1.75;1.00;;;;;;;;5043345;28;8844;-74
2023/11/11 12:38:53;;;;;;;;;1.00;1.00;;;;;;;;5041398;28;8860;-74
2023/11/11 12:41:26;;;;;;;;;2.00;2.00;;;;;;;;5051560;28;8883;-75
2023/11/11 12:44:05;;;;;;;;;1.00;1.00;;;;;;;;5039011;28;8851;-75
2023/11/11 12:46:58;;;;;;;;;2.75;1.00;;;;;;;;5050604;28;8876;-76
2023/11/11 12:49:27;;;;;;;;;1.00;1.00;;;;;;;;5051063;28;9020;-74
2023/11/11 12:52:04;;;;;;;;;1.50;0.75;;;;;;;;5050208;28;9614;-73
2023/11/11 12:54:37;;;;;;;;;0.00;0.00;;;;;;;;5050341;28;8903;-75
2023/11/11 12:57:08;;;;;;;;;0.00;0.00;;;;;;;;5051541;28;8867;-76
2023/11/11 12:59:37;;;;;;;;;0.00;0.00;;;;;;;;5051463;28;8854;-76
2023/11/11 13:02:08;;;;;;;;;0.75;0.50;;;;;;;;5049047;28;9657;-76
2023/11/11 13:04:35;;;;;;;;;0.50;0.50;;;;;;;;5038445;28;8868;-77
2023/11/11 13:07:17;;;;;;;;;0.00;0.00;;;;;;;;5048886;28;8974;-76
2023/11/11 13:09:45;;;;;;;;;2.00;2.00;;;;;;;;5048591;28;8852;-75
2023/11/11 13:12:14;;;;;;;;;0.50;0.50;;;;;;;;5050240;28;8990;-75
2023/11/11 13:14:44;;;;;;;;;0.75;0.75;;;;;;;;5039833;28;8890;-76
2023/11/11 13:17:12;;;;;;;;;1.75;1.00;;;;;;;;5050554;28;8851;-74
2023/11/11 13:19:39;;;;;;;;;2.00;2.00;;;;;;;;5044339;28;8842;-73
2023/11/11 13:22:09;;;;;;;;;1.75;1.00;;;;;;;;5048706;28;8836;-73
2023/11/11 13:24:37;;;;;;;;;0.00;0.00;;;;;;;;5050009;28;8848;-73
2023/11/11 13:27:07;;;;;;;;;0.00;0.00;;;;;;;;5048867;28;8898;-76
2023/11/11 13:29:34;;;;;;;;;1.00;1.00;;;;;;;;5049558;28;8871;-76
2023/11/11 13:32:01;;;;;;;;;0.00;0.00;;;;;;;;5048286;28;8784;-74
2023/11/11 13:34:29;;;;;;;;;1.25;1.00;;;;;;;;5049134;28;8898;-75
2023/11/11 13:37:00;;;;;;;;;0.00;0.00;;;;;;;;5048174;28;8856;-75
2023/11/11 13:39:34;;;;;;;;;2.00;1.00;;;;;;;;5049248;28;8844;-76
2023/11/11 13:42:07;;;;;;;;;0.25;0.25;;;;;;;;5048725;28;8852;-77
2023/11/11 13:44:36;;;;;;;;;1.00;0.00;;;;;;;;5049360;28;9575;-75
2023/11/11 13:47:03;;;;;;;;;0.00;0.00;;;;;;;;5050404;28;8864;-75
2023/11/11 13:49:31;;;;;;;;;1.00;1.00;;;;;;;;5036129;28;8854;-77
2023/11/11 13:52:00;;;;;;;;;1.00;1.00;;;;;;;;5040203;28;8945;-77
2023/11/11 13:54:29;;;;;;;;;2.00;2.00;;;;;;;;5052269;28;8886;-75
2023/11/11 13:57:00;;;;;;;;;2.00;0.50;;;;;;;;5052937;28;8860;-76
2023/11/11 13:59:30;;;;;;;;;0.00;0.00;;;;;;;;5052821;28;8848;-76
2023/11/11 14:01:59;;;;;;;;;0.25;0.25;;;;;;;;5053137;28;8828;-80
2023/11/11 14:04:27;;;;;;;;;2.00;2.00;;;;;;;;5052798;28;8848;-78
2023/11/11 14:06:54;;;;;;;;;2.00;1.00;;;;;;;;5047110;28;8847;-78
2023/11/11 14:09:23;;;;;;;;;0.25;0.25;;;;;;;;5049798;28;8844;-80
2023/11/11 14:11:50;;;;;;;;;1.00;1.00;;;;;;;;5048191;28;8840;-78
2023/11/11 14:14:18;;;;;;;;;2.00;0.25;;;;;;;;5050373;28;8941;-78
2023/11/11 14:16:46;;;;;;;;;0.00;0.00;;;;;;;;5051161;28;8848;-78
2023/11/11 14:19:15;;;;;;;;;0.50;0.50;;;;;;;;5038313;28;8876;-78
2023/11/11 14:21:42;;;;;;;;;0.00;0.00;;;;;;;;5046260;28;8890;-78
2023/11/11 14:24:10;;;;;;;;;0.00;0.00;;;;;;;;5047516;28;8852;-78
2023/11/11 14:26:46;;;;;;;;;1.50;1.00;;;;;;;;5047478;28;9712;-78
2023/11/11 14:29:14;;;;;;;;;0.00;0.00;;;;;;;;5048058;28;8890;-76
2023/11/11 14:31:41;;;;;;;;;0.00;0.00;;;;;;;;5040700;28;8834;-77
2023/11/11 14:34:08;;;;;;;;;1.00;0.00;;;;;;;;5041480;28;9642;-77
2023/11/11 14:36:38;;;;;;;;;1.00;1.00;;;;;;;;5046887;28;8855;-77
2023/11/11 14:39:07;;;;;;;;;0.00;0.00;;;;;;;;5047986;28;8963;-78
2023/11/11 14:41:37;;;;;;;;;0.00;0.00;;;;;;;;5047830;28;8868;-77
2023/11/11 14:44:05;;;;;;;;;0.00;0.00;;;;;;;;5047295;28;9642;-77
2023/11/11 14:46:34;;;;;;;;;0.00;0.00;;;;;;;;5047040;28;8872;-77
2023/11/11 14:49:03;;;;;;;;;0.00;0.00;;;;;;;;5047470;28;8887;-78
2023/11/11 14:51:32;;;;;;;;;4.00;1.00;;;;;;;;5047082;28;8844;-76
2023/11/11 14:54:03;;;;;;;;;2.00;2.00;;;;;;;;5047921;28;8852;-78
2023/11/11 14:56:33;;;;;;;;;1.00;1.00;;;;;;;;5047479;28;8842;-77